Terminal Aerodrome Forecast
Issued by NWS Wakefield, VA

Home | Current Version | Previous Version | Text Only | Print | Product List | Glossary On
Versions: 1 2 3 4 5 6 7 8 9 10 11 12 13 14 15 16 17 18
118
FTUS41 KAKQ 131737
TAFSBY
TAF
KSBY 131737Z 1318/1418 31023G34KT P6SM SCT060
     FM132200 32018G27KT P6SM BKN060
     FM140000 33015G25KT P6SM BKN060
     FM140900 31012G18KT P6SM SCT040
     FM141500 33012G18KT P6SM SKC=

USA.gov is the U.S. government's official web portal to all federal, state and local government web resources and services.